Time;durP1;ratioP1;P1;durP2;ratioP2;P2;SDS_P1;SDS_P2;PMS_P1;PMS_P2;Temp;Humidity;BMP_temperature;BMP_pressure;BME280_temperature;BME280_humidity;BME280_pressure;Samples;Min_cycle;Max_cycle;Signal;HPM_P1;HPM_P2
2021/03/15 00:00:44;;;;;;;7.97;4.80;;;3.70;92.00;;;;;;2032051;28;20035;-74
2021/03/15 00:01:45;;;;;;;7.32;4.97;;;3.70;92.00;;;;;;2032107;29;20521;-74
2021/03/15 00:02:47;;;;;;;7.25;4.90;;;3.70;92.10;;;;;;2031543;28;20039;-74
2021/03/15 00:03:48;;;;;;;6.20;4.57;;;3.70;92.00;;;;;;2031120;29;20500;-74
2021/03/15 00:04:48;;;;;;;9.20;5.22;;;3.70;92.10;;;;;;2032280;28;20052;-74
2021/03/15 00:05:49;;;;;;;6.90;4.80;;;3.70;92.20;;;;;;2031415;28;20043;-74
2021/03/15 00:06:50;;;;;;;7.85;4.95;;;3.70;92.10;;;;;;2031423;29;20511;-74
2021/03/15 00:07:51;;;;;;;6.53;5.28;;;3.70;92.10;;;;;;2039452;28;20467;-74
2021/03/15 00:08:51;;;;;;;6.95;5.00;;;3.70;92.10;;;;;;2031453;28;20028;-74
2021/03/15 00:09:52;;;;;;;6.97;5.05;;;3.70;92.20;;;;;;2031482;29;20037;-74
2021/03/15 00:10:53;;;;;;;6.57;5.25;;;3.70;92.20;;;;;;2031727;28;20032;-74
2021/03/15 00:11:53;;;;;;;8.38;5.30;;;3.70;92.10;;;;;;2032112;28;20032;-75
2021/03/15 00:12:54;;;;;;;7.22;5.28;;;3.80;92.10;;;;;;2031952;28;20047;-74
2021/03/15 00:13:54;;;;;;;6.82;5.22;;;3.80;92.00;;;;;;2030624;28;20032;-74
2021/03/15 00:14:55;;;;;;;7.13;5.13;;;3.80;92.00;;;;;;2039040;28;20062;-74
2021/03/15 00:15:57;;;;;;;6.85;5.40;;;3.80;91.90;;;;;;2039190;29;20031;-74
2021/03/15 00:16:58;;;;;;;8.10;5.13;;;3.90;91.80;;;;;;2032028;29;20031;-74
2021/03/15 00:17:58;;;;;;;7.40;5.10;;;3.90;92.00;;;;;;2039067;28;20059;-74
2021/03/15 00:18:59;;;;;;;8.10;5.30;;;4.00;91.60;;;;;;2039179;29;20036;-75
2021/03/15 00:20:00;;;;;;;7.43;5.10;;;4.10;91.60;;;;;;2031757;29;20033;-74
2021/03/15 00:21:00;;;;;;;6.90;4.95;;;4.10;91.30;;;;;;2031582;28;20453;-75
2021/03/15 00:22:01;;;;;;;8.85;5.13;;;4.20;91.20;;;;;;2031934;28;20028;-75
2021/03/15 00:23:02;;;;;;;7.75;4.95;;;4.20;91.00;;;;;;2039038;28;20086;-72
2021/03/15 00:24:03;;;;;;;7.68;5.30;;;4.20;91.30;;;;;;2030726;28;20115;-73
2021/03/15 00:25:06;;;;;;;6.50;5.10;;;4.30;90.80;;;;;;2031388;29;20021;-73
2021/03/15 00:26:06;;;;;;;8.90;5.10;;;4.30;90.70;;;;;;2039166;28;20403;-73
2021/03/15 00:27:07;;;;;;;6.50;5.00;;;4.30;90.80;;;;;;2039079;29;20038;-73
2021/03/15 00:28:08;;;;;;;9.85;5.88;;;4.30;90.80;;;;;;2039172;29;20040;-72
2021/03/15 00:29:08;;;;;;;6.75;5.28;;;4.30;90.90;;;;;;2039042;29;20040;-72
2021/03/15 00:30:12;;;;;;;9.27;5.68;;;4.30;90.80;;;;;;2031761;28;20032;-73
2021/03/15 00:31:13;;;;;;;6.70;4.90;;;4.30;90.80;;;;;;2031544;29;20068;-73
2021/03/15 00:32:13;;;;;;;7.10;5.22;;;4.30;90.80;;;;;;2031877;29;20028;-73
2021/03/15 00:33:14;;;;;;;8.10;5.57;;;4.30;90.80;;;;;;2031297;28;20491;-73
2021/03/15 00:34:14;;;;;;;8.23;5.18;;;4.40;90.80;;;;;;2031835;28;20040;-73
2021/03/15 00:35:17;;;;;;;7.65;5.57;;;4.40;90.70;;;;;;2031840;28;20850;-73
2021/03/15 00:36:18;;;;;;;7.72;5.10;;;4.40;90.60;;;;;;2031847;29;20068;-73
2021/03/15 00:37:19;;;;;;;6.85;5.00;;;4.40;90.60;;;;;;2030978;28;20040;-74
2021/03/15 00:38:19;;;;;;;7.47;5.35;;;4.40;91.00;;;;;;2031148;29;20523;-74
2021/03/15 00:39:20;;;;;;;6.82;5.25;;;4.40;90.60;;;;;;2031078;28;20036;-73
2021/03/15 00:40:22;;;;;;;7.43;5.18;;;4.40;90.50;;;;;;2031133;29;20063;-73
2021/03/15 00:41:23;;;;;;;6.65;5.35;;;4.50;90.40;;;;;;2031427;29;20095;-73
2021/03/15 00:42:24;;;;;;;7.20;5.40;;;4.40;90.50;;;;;;2031651;29;20032;-73
2021/03/15 00:43:24;;;;;;;7.70;5.68;;;4.40;90.40;;;;;;2038378;28;20822;-73
2021/03/15 00:44:25;;;;;;;7.20;5.53;;;4.40;90.40;;;;;;2023238;29;20748;-74
2021/03/15 00:45:26;;;;;;;7.82;5.90;;;4.40;90.50;;;;;;2015581;29;20041;-73
2021/03/15 00:46:27;;;;;;;6.82;5.03;;;4.40;90.50;;;;;;2031236;29;20079;-73
2021/03/15 00:47:28;;;;;;;8.20;5.20;;;4.40;90.50;;;;;;2031792;28;20082;-73
2021/03/15 00:48:28;;;;;;;7.43;5.07;;;4.30;90.50;;;;;;2032085;28;20034;-73
2021/03/15 00:49:30;;;;;;;8.70;5.30;;;4.30;90.60;;;;;;2038983;28;20078;-72
2021/03/15 00:50:39;;;;;;;6.97;5.18;;;4.30;90.70;;;;;;2039091;29;20090;-73
2021/03/15 00:51:40;;;;;;;7.70;5.40;;;4.20;90.80;;;;;;2031989;29;20028;-73
2021/03/15 00:52:41;;;;;;;7.00;5.32;;;4.20;90.90;;;;;;2039820;28;20404;-73
2021/03/15 00:53:41;;;;;;;6.80;5.10;;;4.10;91.00;;;;;;2039125;29;20388;-73
2021/03/15 00:54:42;;;;;;;8.45;5.60;;;4.10;91.20;;;;;;2031883;28;20029;-73
2021/03/15 00:55:56;;;;;;;8.90;5.65;;;4.00;91.30;;;;;;2033700;28;20055;-73
2021/03/15 00:56:56;;;;;;;9.15;5.53;;;4.00;91.50;;;;;;2031768;29;20075;-73
2021/03/15 00:57:57;;;;;;;9.50;6.50;;;4.00;91.60;;;;;;2024148;28;20059;-73
2021/03/15 00:59:01;;;;;;;7.22;5.45;;;4.00;91.50;;;;;;2024137;29;20035;-74
2021/03/15 01:00:04;;;;;;;7.88;5.70;;;4.00;91.50;;;;;;2023712;29;20040;-74
2021/03/15 01:01:22;;;;;;;8.25;5.90;;;4.00;91.60;;;;;;2025587;29;20492;-73
2021/03/15 01:02:27;;;;;;;10.20;6.10;;;3.90;91.70;;;;;;2023770;29;20543;-73
2021/03/15 01:03:28;;;;;;;9.13;6.07;;;3.90;91.80;;;;;;2030606;29;20034;-73
2021/03/15 01:04:33;;;;;;;8.88;5.80;;;3.90;91.90;;;;;;2030971;28;20028;-73
2021/03/15 01:05:51;;;;;;;8.32;5.65;;;3.90;92.10;;;;;;2025219;28;20041;-73
2021/03/15 01:07:11;;;;;;;9.55;6.07;;;3.80;92.20;;;;;;2025372;28;20036;-73
2021/03/15 01:08:15;;;;;;;8.88;6.18;;;3.80;92.20;;;;;;2031067;29;20698;-72
2021/03/15 01:09:17;;;;;;;10.30;6.65;;;3.70;92.30;;;;;;2030905;28;20746;-73
2021/03/15 01:10:27;;;;;;;10.07;6.50;;;3.70;92.20;;;;;;2031019;28;20519;-73
2021/03/15 01:11:29;;;;;;;9.77;6.15;;;3.70;92.20;;;;;;2031065;29;20127;-73
2021/03/15 01:12:34;;;;;;;9.50;6.00;;;3.70;92.20;;;;;;2038789;29;20123;-73
2021/03/15 01:13:37;;;;;;;10.13;6.20;;;3.70;92.20;;;;;;2037572;29;20068;-74
2021/03/15 01:14:38;;;;;;;9.63;6.65;;;3.60;92.30;;;;;;2031527;29;20035;-73
2021/03/15 01:15:45;;;;;;;10.75;6.47;;;3.60;92.30;;;;;;2030846;29;20470;-73
2021/03/15 01:16:46;;;;;;;9.85;6.50;;;3.60;92.40;;;;;;2030957;29;20043;-73
2021/03/15 01:17:47;;;;;;;9.23;6.65;;;3.60;92.40;;;;;;2038776;29;20051;-74
2021/03/15 01:18:48;;;;;;;8.93;6.50;;;3.60;92.30;;;;;;2031065;28;20025;-73
2021/03/15 01:19:48;;;;;;;8.70;6.28;;;3.60;92.40;;;;;;2030803;29;20028;-73
2021/03/15 01:20:49;;;;;;;8.82;6.32;;;3.60;92.30;;;;;;2031313;29;20090;-73
2021/03/15 01:21:50;;;;;;;9.20;6.38;;;3.60;92.40;;;;;;2031428;28;20039;-73
2021/03/15 01:22:51;;;;;;;8.48;5.93;;;3.60;92.40;;;;;;2031744;28;20108;-73
2021/03/15 01:23:52;;;;;;;10.23;6.32;;;3.60;92.40;;;;;;2031032;29;20023;-73
2021/03/15 01:24:52;;;;;;;9.50;6.05;;;3.50;92.40;;;;;;2032006;29;20025;-73
2021/03/15 01:25:53;;;;;;;7.43;5.63;;;3.50;92.40;;;;;;2032961;28;20026;-73
2021/03/15 01:26:54;;;;;;;9.13;6.40;;;3.50;92.50;;;;;;2032945;29;20032;-73
2021/03/15 01:27:55;;;;;;;9.48;6.30;;;3.50;92.50;;;;;;2032311;28;20068;-73
2021/03/15 01:28:55;;;;;;;9.55;6.40;;;3.50;92.50;;;;;;2032268;29;20063;-73
2021/03/15 01:29:56;;;;;;;11.50;7.05;;;3.60;92.60;;;;;;2032778;29;20384;-73
2021/03/15 01:30:57;;;;;;;9.48;6.90;;;3.60;92.60;;;;;;2032580;29;20032;-73
2021/03/15 01:31:57;;;;;;;9.45;6.70;;;3.70;92.50;;;;;;2032719;29;20032;-73
2021/03/15 01:32:58;;;;;;;9.85;6.45;;;3.70;92.40;;;;;;2032945;28;20456;-74
2021/03/15 01:33:59;;;;;;;8.57;6.30;;;3.80;92.30;;;;;;2032299;29;20059;-73
2021/03/15 01:34:59;;;;;;;9.43;6.20;;;3.80;92.20;;;;;;2032861;28;20111;-73
2021/03/15 01:36:00;;;;;;;9.07;6.53;;;3.80;92.10;;;;;;2032856;28;20027;-73
2021/03/15 01:37:01;;;;;;;8.82;6.43;;;3.90;92.00;;;;;;2032957;28;20040;-73
2021/03/15 01:38:05;;;;;;;8.77;6.57;;;3.90;91.90;;;;;;2032081;28;20052;-73
2021/03/15 01:39:06;;;;;;;8.20;5.82;;;4.00;91.90;;;;;;2032256;29;20024;-74
2021/03/15 01:40:07;;;;;;;9.20;5.90;;;4.00;91.80;;;;;;2032909;28;20546;-74
2021/03/15 01:41:08;;;;;;;8.88;6.22;;;4.00;91.80;;;;;;2031663;29;20040;-74
2021/03/15 01:42:09;;;;;;;7.68;5.60;;;4.00;91.70;;;;;;2032081;29;20052;-74
2021/03/15 01:43:10;;;;;;;8.85;6.50;;;4.10;91.70;;;;;;2032809;28;20031;-74
2021/03/15 01:44:10;;;;;;;7.97;6.00;;;4.10;91.60;;;;;;2039615;28;20348;-74
2021/03/15 01:45:12;;;;;;;7.60;5.95;;;4.10;91.50;;;;;;2039985;29;20070;-73
2021/03/15 01:46:13;;;;;;;7.97;5.85;;;4.10;91.50;;;;;;2032657;29;20032;-73
2021/03/15 01:47:13;;;;;;;9.77;6.63;;;4.10;91.40;;;;;;2032787;29;20028;-73
2021/03/15 01:48:14;;;;;;;10.23;6.00;;;4.20;91.30;;;;;;2033006;28;20496;-73
2021/03/15 01:49:15;;;;;;;8.10;6.03;;;4.10;91.30;;;;;;2032753;28;20056;-73
2021/03/15 01:50:17;;;;;;;10.50;6.88;;;4.20;91.40;;;;;;2032855;28;20155;-73
2021/03/15 01:51:18;;;;;;;9.63;6.72;;;4.10;91.40;;;;;;2032287;29;20040;-73
2021/03/15 01:52:20;;;;;;;9.07;6.50;;;4.20;91.50;;;;;;2032706;29;20507;-73
2021/03/15 01:53:21;;;;;;;10.82;7.05;;;4.20;91.70;;;;;;2032143;29;20094;-73
2021/03/15 01:54:22;;;;;;;10.48;7.20;;;4.20;91.30;;;;;;2032210;28;20043;-73
2021/03/15 01:55:24;;;;;;;10.32;7.10;;;4.20;91.20;;;;;;2024346;29;20040;-73
2021/03/15 01:56:25;;;;;;;9.52;6.72;;;4.30;91.20;;;;;;2032115;29;20082;-73
2021/03/15 01:57:26;;;;;;;12.30;7.47;;;4.30;91.20;;;;;;2031957;29;20044;-74
2021/03/15 01:58:27;;;;;;;11.63;7.63;;;4.30;91.10;;;;;;2032092;29;20028;-73
2021/03/15 01:59:28;;;;;;;9.82;7.53;;;4.30;91.10;;;;;;2032134;29;20745;-73
2021/03/15 02:00:28;;;;;;;9.82;7.50;;;4.40;91.10;;;;;;2039735;29;20473;-73
2021/03/15 02:01:29;;;;;;;10.18;7.30;;;4.40;91.00;;;;;;2032117;29;20373;-73
2021/03/15 02:02:30;;;;;;;9.77;7.00;;;4.40;91.00;;;;;;2032388;29;20029;-73
2021/03/15 02:03:31;;;;;;;10.52;7.50;;;4.40;91.00;;;;;;2032557;29;20032;-73
2021/03/15 02:04:32;;;;;;;12.20;7.78;;;4.40;91.00;;;;;;2034364;29;20028;-73
2021/03/15 02:05:36;;;;;;;11.40;7.80;;;4.40;91.00;;;;;;2035151;28;20028;-73
2021/03/15 02:06:36;;;;;;;12.55;8.25;;;4.40;91.00;;;;;;2041342;29;20024;-73
2021/03/15 02:07:37;;;;;;;14.07;8.40;;;4.40;91.00;;;;;;2040226;28;20394;-73
2021/03/15 02:08:38;;;;;;;12.60;7.80;;;4.40;91.10;;;;;;2032949;28;20400;-73
2021/03/15 02:09:39;;;;;;;12.73;8.05;;;4.40;91.10;;;;;;2032905;28;20035;-73
2021/03/15 02:10:39;;;;;;;13.20;8.10;;;4.40;91.20;;;;;;2032460;29;20032;-74
2021/03/15 02:12:14;;;;;;;12.98;8.52;;;4.40;91.20;;;;;;2032570;28;20463;-73
2021/03/15 02:13:39;;;;;;;13.63;8.52;;;4.50;91.10;;;;;;2032013;28;20506;-73
2021/03/15 02:15:01;;;;;;;12.23;9.32;;;4.50;91.10;;;;;;2032742;29;20107;-75
2021/03/15 02:16:41;;;;;;;11.50;8.40;;;4.50;91.20;;;;;;2032822;28;20039;-74
2021/03/15 02:18:09;;;;;;;13.20;8.88;;;4.50;91.30;;;;;;2032480;29;20028;-73
2021/03/15 02:19:40;;;;;;;15.93;8.80;;;4.50;91.60;;;;;;2031913;29;20113;-73
2021/03/15 02:20:52;;;;;;;;;;;4.50;91.50;;;;;;2032358;29;20028;-74
2021/03/15 02:22:20;;;;;;;13.38;8.32;;;4.50;91.50;;;;;;2039725;29;19907;-73
2021/03/15 02:23:31;;;;;;;15.90;8.90;;;4.50;91.50;;;;;;2031422;28;20033;-73
2021/03/15 02:25:10;;;;;;;14.15;8.80;;;4.50;91.60;;;;;;2032004;29;20062;-75
2021/03/15 02:26:52;;;;;;;13.30;8.95;;;4.50;91.70;;;;;;2039703;29;20072;-73
2021/03/15 02:28:14;;;;;;;13.13;8.68;;;4.50;91.70;;;;;;2039708;29;20028;-74
2021/03/15 02:29:52;;;;;;;11.90;8.27;;;4.50;91.60;;;;;;2037342;29;20028;-73
2021/03/15 02:31:04;;;;;;;17.45;9.27;;;4.60;91.70;;;;;;2032328;28;20028;-73
2021/03/15 02:32:10;;;;;;;13.50;9.15;;;4.60;91.50;;;;;;2032491;29;20032;-73
2021/03/15 02:33:30;;;;;;;15.68;8.98;;;4.60;91.70;;;;;;2039370;28;20027;-73
2021/03/15 02:34:37;;;;;;;14.20;9.13;;;4.60;91.60;;;;;;2037514;29;20032;-74
2021/03/15 02:35:39;;;;;;;13.77;8.90;;;4.60;91.50;;;;;;2032461;28;20032;-74
2021/03/15 02:36:41;;;;;;;12.30;8.90;;;4.60;91.10;;;;;;2031572;29;20071;-73
2021/03/15 02:37:50;;;;;;;15.10;9.32;;;4.60;91.00;;;;;;2032352;29;20043;-74
2021/03/15 02:38:55;;;;;;;17.55;9.20;;;4.60;91.10;;;;;;2039726;29;20027;-74
2021/03/15 02:40:03;;;;;;;13.07;8.88;;;4.60;91.00;;;;;;2039259;29;20047;-74
2021/03/15 02:41:05;;;;;;;14.15;8.70;;;4.70;91.00;;;;;;2032153;29;20028;-74
2021/03/15 02:42:09;;;;;;;12.02;8.48;;;4.60;91.00;;;;;;2032248;29;20357;-74
2021/03/15 02:43:37;;;;;;;13.15;9.07;;;4.60;90.80;;;;;;2032128;29;20033;-74
2021/03/15 02:44:39;;;;;;;15.27;8.63;;;4.60;91.00;;;;;;2034467;28;20028;-75
2021/03/15 02:45:40;;;;;;;13.85;8.45;;;4.60;90.90;;;;;;2032367;29;20525;-74
2021/03/15 02:46:43;;;;;;;14.35;9.00;;;4.60;90.90;;;;;;2032484;29;20028;-75
2021/03/15 02:47:45;;;;;;;13.10;8.38;;;4.60;90.80;;;;;;2032329;29;20039;-74
2021/03/15 02:48:50;;;;;;;13.02;8.30;;;4.60;90.90;;;;;;2032466;29;20079;-74
2021/03/15 02:49:55;;;;;;;12.40;8.45;;;4.60;91.00;;;;;;2032436;29;20122;-74
2021/03/15 02:50:56;;;;;;;11.65;8.23;;;4.70;91.00;;;;;;2032154;29;20513;-75
2021/03/15 02:51:59;;;;;;;12.02;8.13;;;4.70;91.10;;;;;;2032346;29;20353;-75
2021/03/15 02:53:02;;;;;;;12.73;8.55;;;4.70;91.10;;;;;;2039691;29;20035;-75
2021/03/15 02:54:05;;;;;;;14.32;8.98;;;4.70;90.90;;;;;;2031332;29;20051;-74
2021/03/15 02:55:07;;;;;;;11.95;7.85;;;4.70;90.80;;;;;;2031898;29;20032;-75
2021/03/15 02:56:13;;;;;;;12.45;8.68;;;4.70;90.80;;;;;;2031724;29;20028;-75
2021/03/15 02:57:19;;;;;;;13.25;8.68;;;4.70;90.90;;;;;;2031785;29;20040;-75
2021/03/15 02:58:21;;;;;;;12.20;8.10;;;4.70;90.70;;;;;;2039586;29;20031;-75
2021/03/15 02:59:23;;;;;;;13.05;8.30;;;4.70;90.60;;;;;;2039494;29;20039;-75
2021/03/15 03:00:26;;;;;;;11.50;8.02;;;4.70;90.60;;;;;;2032450;29;20028;-75
2021/03/15 03:01:28;;;;;;;11.60;8.25;;;4.70;90.70;;;;;;2039382;28;20020;-75
2021/03/15 03:02:29;;;;;;;14.27;8.75;;;4.70;90.70;;;;;;2039441;29;20051;-75
2021/03/15 03:03:32;;;;;;;14.25;8.52;;;4.70;90.60;;;;;;2031827;29;20028;-74
2021/03/15 03:04:33;;;;;;;11.10;7.78;;;4.70;90.60;;;;;;2032323;29;20024;-74
2021/03/15 03:05:34;;;;;;;12.55;8.35;;;4.70;90.60;;;;;;2032275;29;20111;-75
2021/03/15 03:06:37;;;;;;;12.05;8.25;;;4.70;90.60;;;;;;2032293;29;20039;-74
2021/03/15 03:07:41;;;;;;;14.43;8.63;;;4.70;90.30;;;;;;2032184;29;20111;-74
2021/03/15 03:08:44;;;;;;;14.98;8.60;;;4.70;90.40;;;;;;2039464;28;20027;-74
2021/03/15 03:09:47;;;;;;;14.13;8.60;;;4.70;90.30;;;;;;2039231;29;20600;-74
2021/03/15 03:10:50;;;;;;;15.32;8.68;;;4.70;90.30;;;;;;2031998;29;20024;-74
2021/03/15 03:11:52;;;;;;;16.60;8.85;;;4.70;90.40;;;;;;2031985;29;20575;-74
2021/03/15 03:12:54;;;;;;;13.95;8.88;;;4.70;90.30;;;;;;2032221;29;20043;-73
2021/03/15 03:13:57;;;;;;;17.65;8.95;;;4.70;90.20;;;;;;2031517;29;20110;-73
2021/03/15 03:14:59;;;;;;;15.23;9.20;;;4.70;90.30;;;;;;2032202;29;20031;-73
2021/03/15 03:16:01;;;;;;;14.07;9.00;;;4.70;90.30;;;;;;2032136;29;20036;-73
2021/03/15 03:17:04;;;;;;;15.90;8.80;;;4.70;90.20;;;;;;2031609;29;20036;-74
2021/03/15 03:18:06;;;;;;;12.65;8.73;;;4.70;90.20;;;;;;2031634;29;20192;-73
2021/03/15 03:19:10;;;;;;;12.43;8.27;;;4.70;90.30;;;;;;2032159;29;20025;-74
2021/03/15 03:20:14;;;;;;;13.93;8.90;;;4.70;90.30;;;;;;2031947;29;20029;-74
2021/03/15 03:21:16;;;;;;;11.43;8.20;;;4.70;90.40;;;;;;2039243;29;20034;-73
2021/03/15 03:22:18;;;;;;;12.10;7.90;;;4.70;90.30;;;;;;2039300;29;20047;-74
2021/03/15 03:23:20;;;;;;;11.98;8.13;;;4.70;90.40;;;;;;2032054;28;20035;-74
2021/03/15 03:24:23;;;;;;;12.02;8.68;;;4.70;90.50;;;;;;2032330;29;20068;-74
2021/03/15 03:25:25;;;;;;;12.15;8.32;;;4.70;90.50;;;;;;2032443;29;20039;-74
2021/03/15 03:26:29;;;;;;;14.02;8.65;;;4.70;90.50;;;;;;2039392;29;20042;-74
2021/03/15 03:27:31;;;;;;;14.07;8.50;;;4.60;90.60;;;;;;2038751;29;20580;-74
2021/03/15 03:28:33;;;;;;;12.70;8.32;;;4.60;90.60;;;;;;2031572;29;20024;-74
2021/03/15 03:29:36;;;;;;;12.27;8.60;;;4.60;90.80;;;;;;2032111;29;20036;-74
2021/03/15 03:30:39;;;;;;;15.05;8.85;;;4.50;90.80;;;;;;2031171;28;20032;-74
2021/03/15 03:31:43;;;;;;;13.25;8.60;;;4.50;90.90;;;;;;2023896;28;20048;-74
2021/03/15 03:32:46;;;;;;;12.90;8.43;;;4.40;91.10;;;;;;2031600;29;20024;-74
2021/03/15 03:33:48;;;;;;;12.70;8.32;;;4.40;91.10;;;;;;2031607;29;20028;-74
2021/03/15 03:34:49;;;;;;;15.95;9.02;;;4.40;91.20;;;;;;2032239;29;20120;-75
2021/03/15 03:35:50;;;;;;;14.32;9.30;;;4.40;91.30;;;;;;2031935;29;20032;-74
2021/03/15 03:36:51;;;;;;;14.02;9.00;;;4.40;91.40;;;;;;2032068;29;20078;-74
2021/03/15 03:37:52;;;;;;;16.27;8.68;;;4.40;91.40;;;;;;2032088;28;20414;-74
2021/03/15 03:38:54;;;;;;;14.82;9.10;;;4.40;91.40;;;;;;2032150;28;20024;-74
2021/03/15 03:39:55;;;;;;;13.35;8.30;;;4.40;91.30;;;;;;2032014;29;20047;-74
2021/03/15 03:40:57;;;;;;;12.10;8.40;;;4.40;91.30;;;;;;2031788;28;20016;-74
2021/03/15 03:41:57;;;;;;;11.43;8.43;;;4.50;91.30;;;;;;2039104;28;20131;-74
2021/03/15 03:42:58;;;;;;;14.00;8.45;;;4.50;91.30;;;;;;2039437;29;20028;-73
2021/03/15 03:43:58;;;;;;;13.98;8.57;;;4.50;91.10;;;;;;2031632;28;20040;-73
2021/03/15 03:44:59;;;;;;;11.73;8.50;;;4.50;91.10;;;;;;2031587;28;20031;-73
2021/03/15 03:46:00;;;;;;;13.80;8.73;;;4.50;91.10;;;;;;2031349;29;20063;-74
2021/03/15 03:47:00;;;;;;;15.13;8.75;;;4.50;91.50;;;;;;2032006;28;20027;-74
2021/03/15 03:48:03;;;;;;;17.05;9.20;;;4.50;91.10;;;;;;2031828;28;20086;-73
2021/03/15 03:49:04;;;;;;;14.55;8.90;;;4.50;91.00;;;;;;2039244;29;20511;-74
2021/03/15 03:50:08;;;;;;;12.90;8.82;;;4.50;91.00;;;;;;2039165;29;20083;-74
2021/03/15 03:51:12;;;;;;;13.70;9.30;;;4.50;91.00;;;;;;2031061;29;20400;-73
2021/03/15 03:52:14;;;;;;;14.35;9.55;;;4.50;90.90;;;;;;2031433;29;20040;-73
2021/03/15 03:53:27;;;;;;;15.90;9.30;;;4.50;90.80;;;;;;2031444;29;20035;-73
2021/03/15 03:54:38;;;;;;;15.32;8.77;;;4.50;90.80;;;;;;2032126;29;20060;-72
2021/03/15 03:56:06;;;;;;;14.50;8.75;;;4.50;90.80;;;;;;2031928;29;20028;-73
2021/03/15 03:57:15;;;;;;;12.95;9.05;;;4.50;90.80;;;;;;2031920;29;20030;-73
2021/03/15 03:58:18;;;;;;;13.27;8.13;;;4.50;90.80;;;;;;2031958;29;20028;-73
2021/03/15 03:59:22;;;;;;;12.52;8.75;;;4.40;90.80;;;;;;2031989;29;20047;-73
2021/03/15 04:00:24;;;;;;;12.93;8.80;;;4.50;90.80;;;;;;2032012;29;20480;-74
2021/03/15 04:01:31;;;;;;;12.35;8.63;;;4.40;90.80;;;;;;2031787;28;20028;-73
2021/03/15 04:02:33;;;;;;;12.65;8.70;;;4.40;91.00;;;;;;2039125;29;20601;-73
2021/03/15 04:03:35;;;;;;;12.80;8.80;;;4.40;91.00;;;;;;2038461;29;20082;-74
2021/03/15 04:04:44;;;;;;;14.18;8.98;;;4.40;91.00;;;;;;2031919;28;20028;-73
2021/03/15 04:05:51;;;;;;;13.15;8.82;;;4.40;91.10;;;;;;2032049;29;20062;-73
2021/03/15 04:06:52;;;;;;;13.82;8.95;;;4.30;91.10;;;;;;2031891;29;20024;-73
2021/03/15 04:08:05;;;;;;;13.02;8.85;;;4.30;91.20;;;;;;2039162;29;20522;-73
2021/03/15 04:09:13;;;;;;;15.90;9.05;;;4.30;91.20;;;;;;2037724;29;20082;-73
2021/03/15 04:10:14;;;;;;;16.55;9.50;;;4.30;91.10;;;;;;2034739;29;20025;-73
2021/03/15 04:11:17;;;;;;;14.95;9.77;;;4.30;91.20;;;;;;2044218;28;20051;-73
2021/03/15 04:12:22;;;;;;;13.60;9.85;;;4.30;91.20;;;;;;2042063;29;20032;-73
2021/03/15 04:13:26;;;;;;;14.18;10.13;;;4.20;91.30;;;;;;2035973;29;20099;-73
2021/03/15 04:14:30;;;;;;;15.18;9.80;;;4.20;91.30;;;;;;2036312;29;20048;-73
2021/03/15 04:15:32;;;;;;;15.05;9.15;;;4.20;91.30;;;;;;2033516;29;20610;-73
2021/03/15 04:16:35;;;;;;;17.42;10.00;;;4.20;91.30;;;;;;2032350;29;20024;-75
2021/03/15 04:17:40;;;;;;;15.88;9.70;;;4.20;91.30;;;;;;2032356;28;20463;-74
2021/03/15 04:18:46;;;;;;;14.02;9.50;;;4.20;91.30;;;;;;2039501;28;20066;-73
2021/03/15 04:20:08;;;;;;;17.00;9.18;;;4.20;91.30;;;;;;2039013;29;20020;-73
2021/03/15 04:21:09;;;;;;;13.27;9.43;;;4.20;91.30;;;;;;2039518;28;20051;-73
2021/03/15 04:22:12;;;;;;;16.33;9.93;;;4.20;91.40;;;;;;2039946;29;20024;-74
2021/03/15 04:23:17;;;;;;;15.75;9.85;;;4.10;91.40;;;;;;2039873;29;20055;-73
2021/03/15 04:24:20;;;;;;;15.32;9.82;;;4.20;91.30;;;;;;2039308;29;20031;-73
2021/03/15 04:25:23;;;;;;;12.45;8.93;;;4.20;91.30;;;;;;2033220;29;20095;-73
2021/03/15 04:26:25;;;;;;;17.77;9.82;;;4.20;91.30;;;;;;2033742;29;20032;-73
2021/03/15 04:27:27;;;;;;;16.20;9.55;;;4.20;91.30;;;;;;2032787;29;20048;-73
2021/03/15 04:28:30;;;;;;;17.20;10.15;;;4.20;91.20;;;;;;2039789;29;20039;-73
2021/03/15 04:29:32;;;;;;;17.15;10.07;;;4.20;91.20;;;;;;2039778;29;20028;-73
2021/03/15 04:30:35;;;;;;;15.00;9.95;;;4.20;91.10;;;;;;2031992;29;20040;-73
2021/03/15 04:31:36;;;;;;;15.25;9.55;;;4.20;91.10;;;;;;2032775;29;20028;-73
2021/03/15 04:32:39;;;;;;;13.35;9.50;;;4.30;91.10;;;;;;2036553;29;20035;-73
2021/03/15 04:33:41;;;;;;;13.68;9.00;;;4.30;91.10;;;;;;2036035;29;20087;-73
2021/03/15 04:34:43;;;;;;;15.50;9.95;;;4.30;91.10;;;;;;2035960;29;20119;-73
2021/03/15 04:35:44;;;;;;;15.07;9.82;;;4.30;91.10;;;;;;2036109;29;20028;-73
2021/03/15 04:36:45;;;;;;;15.63;9.45;;;4.30;91.10;;;;;;2043187;29;20047;-73
2021/03/15 04:37:49;;;;;;;14.90;9.68;;;4.30;91.10;;;;;;2042571;29;20107;-73
2021/03/15 04:38:50;;;;;;;15.05;9.95;;;4.40;91.00;;;;;;2041549;29;20036;-73
2021/03/15 04:39:52;;;;;;;14.27;9.30;;;4.40;90.90;;;;;;2038963;29;20057;-74
2021/03/15 04:40:54;;;;;;;14.75;9.70;;;4.40;90.90;;;;;;2031511;29;20028;-73
2021/03/15 04:41:56;;;;;;;15.10;9.50;;;4.40;90.80;;;;;;2031775;29;20040;-73
2021/03/15 04:43:01;;;;;;;13.27;9.18;;;4.40;90.80;;;;;;2030836;29;20024;-74
2021/03/15 04:44:02;;;;;;;13.75;9.05;;;4.40;90.80;;;;;;2030645;29;20032;-73
2021/03/15 04:45:03;;;;;;;16.48;9.25;;;4.40;90.80;;;;;;2031930;28;20391;-73
2021/03/15 04:46:07;;;;;;;14.68;9.25;;;4.40;90.80;;;;;;2031753;29;20067;-73
2021/03/15 04:47:08;;;;;;;14.93;9.88;;;4.50;90.70;;;;;;2031892;29;20112;-73
2021/03/15 04:48:15;;;;;;;15.40;9.77;;;4.40;90.60;;;;;;2031710;29;20060;-73
2021/03/15 04:49:17;;;;;;;16.23;9.38;;;4.50;90.60;;;;;;2031778;29;20087;-73
2021/03/15 04:50:19;;;;;;;13.90;9.48;;;4.50;90.50;;;;;;2031677;29;20032;-73
2021/03/15 04:51:20;;;;;;;15.65;9.70;;;4.50;90.60;;;;;;2031395;29;20044;-74
2021/03/15 04:52:21;;;;;;;15.23;10.20;;;4.50;90.60;;;;;;2031594;29;20039;-73
2021/03/15 04:53:22;;;;;;;16.08;10.18;;;4.50;90.50;;;;;;2031350;29;20396;-73
2021/03/15 04:54:23;;;;;;;15.38;10.10;;;4.50;90.50;;;;;;2031660;29;20502;-73
2021/03/15 04:55:25;;;;;;;16.23;9.98;;;4.50;90.50;;;;;;2031722;29;20042;-73
2021/03/15 04:56:28;;;;;;;15.40;9.57;;;4.50;90.60;;;;;;2031687;29;20506;-73
2021/03/15 04:57:31;;;;;;;14.07;9.82;;;4.50;90.60;;;;;;2031745;29;20407;-73
2021/03/15 04:58:33;;;;;;;19.48;10.90;;;4.50;90.60;;;;;;2031825;29;20078;-73
2021/03/15 04:59:35;;;;;;;16.13;10.30;;;4.50;90.50;;;;;;2031583;29;20028;-73
2021/03/15 05:00:38;;;;;;;19.45;10.52;;;4.50;90.50;;;;;;2032725;29;20032;-73
2021/03/15 05:01:41;;;;;;;14.68;10.23;;;4.50;90.80;;;;;;2040315;29;20026;-73
2021/03/15 05:02:47;;;;;;;16.52;10.65;;;4.50;90.50;;;;;;2032540;28;20668;-73
2021/03/15 05:03:52;;;;;;;16.65;10.32;;;4.50;90.50;;;;;;2032549;28;20070;-73
2021/03/15 05:04:55;;;;;;;16.67;10.38;;;4.50;90.40;;;;;;2040055;29;20055;-73
2021/03/15 05:05:56;;;;;;;16.05;10.45;;;4.50;90.30;;;;;;2032931;29;20031;-73
2021/03/15 05:06:58;;;;;;;16.77;10.25;;;4.50;90.30;;;;;;2040189;29;20201;-72
2021/03/15 05:08:01;;;;;;;16.35;10.07;;;4.50;90.40;;;;;;2040090;29;20129;-72
2021/03/15 05:09:05;;;;;;;19.23;10.60;;;4.50;90.40;;;;;;2024636;28;20052;-72
2021/03/15 05:10:07;;;;;;;19.73;10.63;;;4.50;90.40;;;;;;2025074;29;20475;-72
2021/03/15 05:11:09;;;;;;;19.70;10.40;;;4.40;90.60;;;;;;2033148;29;20029;-74
2021/03/15 05:12:11;;;;;;;17.27;10.50;;;4.40;90.50;;;;;;2032942;29;20028;-74
2021/03/15 05:13:13;;;;;;;17.58;10.27;;;4.40;90.60;;;;;;2032004;29;20051;-74
2021/03/15 05:14:16;;;;;;;16.05;10.73;;;4.40;90.60;;;;;;2032815;29;20028;-74
2021/03/15 05:15:17;;;;;;;17.40;10.80;;;4.30;90.60;;;;;;2033497;28;20068;-74
2021/03/15 05:16:19;;;;;;;19.92;11.25;;;4.30;90.70;;;;;;2033079;29;20029;-74
2021/03/15 05:17:20;;;;;;;16.58;11.27;;;4.30;90.80;;;;;;2033315;29;20101;-74
2021/03/15 05:18:23;;;;;;;19.35;11.77;;;4.20;90.60;;;;;;2033155;28;20036;-74
2021/03/15 05:19:24;;;;;;;16.45;11.15;;;4.20;90.70;;;;;;2033023;29;20059;-74
2021/03/15 05:20:26;;;;;;;16.65;11.52;;;4.20;90.70;;;;;;2032852;29;20043;-74
2021/03/15 05:21:27;;;;;;;20.58;11.55;;;4.20;90.70;;;;;;2032274;28;20051;-74
2021/03/15 05:22:28;;;;;;;17.63;11.48;;;4.10;90.80;;;;;;2032211;29;20107;-73
2021/03/15 05:23:31;;;;;;;15.95;11.48;;;4.10;90.80;;;;;;2032376;29;20028;-73
2021/03/15 05:24:32;;;;;;;18.20;11.15;;;4.10;90.80;;;;;;2040466;29;20032;-73
2021/03/15 05:25:34;;;;;;;21.35;12.02;;;4.10;90.90;;;;;;2040235;29;20119;-72
2021/03/15 05:26:38;;;;;;;17.23;11.27;;;4.10;91.00;;;;;;2032946;29;20024;-73
2021/03/15 05:27:41;;;;;;;20.13;11.98;;;4.10;90.90;;;;;;2033029;29;20036;-72
2021/03/15 05:28:44;;;;;;;19.98;11.63;;;4.00;90.90;;;;;;2032948;29;20439;-73
2021/03/15 05:29:49;;;;;;;20.63;12.02;;;4.00;90.90;;;;;;2040433;29;20035;-73
2021/03/15 05:30:51;;;;;;;19.23;11.50;;;4.00;91.00;;;;;;2039326;29;20064;-72
2021/03/15 05:31:52;;;;;;;18.55;10.98;;;4.00;91.00;;;;;;2032182;29;20510;-73
2021/03/15 05:32:54;;;;;;;18.75;11.80;;;4.00;91.00;;;;;;2033224;28;20060;-74